This is the latest recevied weather packets stored in our database for station/object KD5UIG. If no packets are shown the sender has not sent any weather packets the latest 10 day(s).
| Time | Temp. | Humidity | Pressure | Rain* | Wind** | Luminosity | Snow |
|---|---|---|---|---|---|---|---|
| 1777497363 | 16.67° C | 73% | 1012.9 hPa | 0 mm | - | 239 W/m² | - |
| 1777494658 | 17.22° C | 71% | 1014.2 hPa | 0 mm | - | 128 W/m² | - |
| 1777494357 | 17.22° C | 70% | 1014.2 hPa | 0 mm | - | 149 W/m² | - |
| 1777487755 | 17.22° C | 73% | 1015.3 hPa | 0 mm | - | 278 W/m² | - |
| 1777486565 | 16.67° C | 74% | 1015.5 hPa | 0 mm | - | 229 W/m² | - |
| 1777486255 | 16.67° C | 74% | 1015.6 hPa | 0 mm | - | 225 W/m² | - |
| 1777485663 | 16.67° C | 74% | 1015.6 hPa | 0 mm | - | 214 W/m² | - |
| 1777483555 | 16.67° C | 73% | 1016.2 hPa | 0 mm | - | 213 W/m² | - |
| 1777481153 | 16.11° C | 76% | 1016.2 hPa | 0 mm | - | 258 W/m² | - |
| 1777478756 | 16.11° C | 75% | 1016.8 hPa | 0 mm | - | 104 W/m² | - |
| 1777477856 | 16.11° C | 75% | 1016.7 hPa | 0 mm | - | 118 W/m² | - |
| 1777476675 | 16.11° C | 77% | 1016.4 hPa | 0 mm | - | 283 W/m² | - |
| 1777476355 | 15.56° C | 77% | 1016.6 hPa | 0 mm | - | 276 W/m² | - |
| 1777476057 | 15.56° C | 77% | 1016.6 hPa | 0 mm | - | 251 W/m² | - |
| 1777474854 | 15.56° C | 77% | 1017 hPa | 0 mm | - | 132 W/m² | - |
| 1777472458 | 15° C | 76% | 1016.2 hPa | 0 mm | - | 84 W/m² | - |
| 1777472154 | 15° C | 76% | 1016 hPa | 0 mm | - | 70 W/m² | - |
| 1777471256 | 15° C | 76% | 1015.8 hPa | 0 mm | - | 83 W/m² | - |
| 1777470356 | 15° C | 76% | 1015.9 hPa | 0 mm | - | 74 W/m² | - |
| 1777468855 | 15° C | 75% | 1016 hPa | 0 mm | - | 26 W/m² | - |
| 1777468561 | 15° C | 75% | 1015.8 hPa | 0 mm | - | 33 W/m² | - |
| 1777468255 | 15° C | 75% | 1015.6 hPa | 0 mm | - | 33 W/m² | - |
| 1777466753 | 15° C | 76% | 1015.6 hPa | 0 mm | - | 14 W/m² | - |
| 1777463756 | 15° C | 76% | 1015.1 hPa | 0 mm | - | 0 W/m² | - |
| 1777457155 | 16.11° C | 75% | 1014.5 hPa | 0 mm | - | 0 W/m² | - |
* Rain latest hour (hover to see other rain measurements)
** Current wind speed in m/s (hover to see current wind gust speed)